Hidden Hills, California
Current Conditions -  °F | °C
As of 11:51 AM on Friday 19 Dec 2014 (Local Time) from KVNY Reporting Station
Clear Clear  
Wind Chill: 62°   Ceiling: Unl
Heat Index: 62°   Visibility: 10mi
Dew Point: 44°   Wind: 3mph
Humidity: 52%   Direction: 330°NNW
Pressure: 30.21"   Gusts: NA
Location:  34.1257°N, 118.676°W
Report Text: KVNY 191951Z 33003KT 10SM CLR 17/07 A3021 RMK AO2 SLP227 T01670067
Loading
Personal Weather Stations






























Interactive Weather Map New forecast layout! Learn more

10-Day Weather Forecast

Advertisements
Track Severe Weather on mobile